sensor_id;sensor_type;location;lat;lon;timestamp;temperature;humidity
5392;DHT22;2719;53.624;9.786;2022-11-28T00:00:54;7.10;99.90
5392;DHT22;2719;53.624;9.786;2022-11-28T00:03:20;7.10;99.90
5392;DHT22;2719;53.624;9.786;2022-11-28T00:05:49;7.10;99.90
5392;DHT22;2719;53.624;9.786;2022-11-28T00:08:18;7.00;99.90
5392;DHT22;2719;53.624;9.786;2022-11-28T00:10:45;7.10;99.90
5392;DHT22;2719;53.624;9.786;2022-11-28T00:13:11;7.10;99.90
5392;DHT22;2719;53.624;9.786;2022-11-28T00:15:38;7.20;99.90
5392;DHT22;2719;53.624;9.786;2022-11-28T00:18:05;7.10;99.90
5392;DHT22;2719;53.624;9.786;2022-11-28T00:20:32;7.10;99.90
5392;DHT22;2719;53.624;9.786;2022-11-28T00:22:59;7.10;99.90
5392;DHT22;2719;53.624;9.786;2022-11-28T00:25:27;6.90;99.90
5392;DHT22;2719;53.624;9.786;2022-11-28T00:27:53;7.00;99.90
5392;DHT22;2719;53.624;9.786;2022-11-28T00:30:20;7.00;99.90
5392;DHT22;2719;53.624;9.786;2022-11-28T00:32:47;7.00;99.90
5392;DHT22;2719;53.624;9.786;2022-11-28T00:35:13;7.10;99.90
5392;DHT22;2719;53.624;9.786;2022-11-28T00:37:40;7.10;99.90
5392;DHT22;2719;53.624;9.786;2022-11-28T00:40:07;7.00;99.90
5392;DHT22;2719;53.624;9.786;2022-11-28T00:42:35;7.10;99.90
5392;DHT22;2719;53.624;9.786;2022-11-28T00:45:02;7.10;99.90
5392;DHT22;2719;53.624;9.786;2022-11-28T00:47:29;7.10;99.90
5392;DHT22;2719;53.624;9.786;2022-11-28T00:49:56;7.20;99.90
5392;DHT22;2719;53.624;9.786;2022-11-28T00:52:22;7.10;99.90
5392;DHT22;2719;53.624;9.786;2022-11-28T00:54:49;7.20;99.90
5392;DHT22;2719;53.624;9.786;2022-11-28T00:57:16;7.10;99.90
5392;DHT22;2719;53.624;9.786;2022-11-28T00:59:44;7.10;99.90
5392;DHT22;2719;53.624;9.786;2022-11-28T01:02:10;7.10;99.90
5392;DHT22;2719;53.624;9.786;2022-11-28T01:04:37;7.20;99.90
5392;DHT22;2719;53.624;9.786;2022-11-28T01:07:04;7.20;99.90
5392;DHT22;2719;53.624;9.786;2022-11-28T01:09:31;7.20;99.90
5392;DHT22;2719;53.624;9.786;2022-11-28T01:11:57;7.00;99.90
5392;DHT22;2719;53.624;9.786;2022-11-28T01:14:25;7.00;99.90
5392;DHT22;2719;53.624;9.786;2022-11-28T01:16:53;6.90;99.90
5392;DHT22;2719;53.624;9.786;2022-11-28T01:19:20;7.10;99.90
5392;DHT22;2719;53.624;9.786;2022-11-28T01:21:47;6.90;99.90
5392;DHT22;2719;53.624;9.786;2022-11-28T01:24:14;7.00;99.90
5392;DHT22;2719;53.624;9.786;2022-11-28T01:26:41;7.00;99.90
5392;DHT22;2719;53.624;9.786;2022-11-28T01:29:08;6.90;99.90
5392;DHT22;2719;53.624;9.786;2022-11-28T01:31:35;7.00;99.90
5392;DHT22;2719;53.624;9.786;2022-11-28T01:34:03;7.00;99.90
5392;DHT22;2719;53.624;9.786;2022-11-28T01:36:30;6.90;99.90
5392;DHT22;2719;53.624;9.786;2022-11-28T01:38:57;7.00;99.90
5392;DHT22;2719;53.624;9.786;2022-11-28T01:41:26;7.10;99.90
5392;DHT22;2719;53.624;9.786;2022-11-28T01:43:58;7.10;99.90
5392;DHT22;2719;53.624;9.786;2022-11-28T01:46:26;6.80;99.90
5392;DHT22;2719;53.624;9.786;2022-11-28T01:48:54;6.80;99.90
5392;DHT22;2719;53.624;9.786;2022-11-28T01:51:23;6.80;99.90
5392;DHT22;2719;53.624;9.786;2022-11-28T01:53:51;6.80;99.90
5392;DHT22;2719;53.624;9.786;2022-11-28T01:56:20;6.70;99.90
5392;DHT22;2719;53.624;9.786;2022-11-28T01:58:51;6.80;99.90
5392;DHT22;2719;53.624;9.786;2022-11-28T02:01:18;6.70;99.90
5392;DHT22;2719;53.624;9.786;2022-11-28T02:03:47;6.60;99.90
5392;DHT22;2719;53.624;9.786;2022-11-28T02:06:17;6.60;99.90
5392;DHT22;2719;53.624;9.786;2022-11-28T02:08:48;6.60;99.90
5392;DHT22;2719;53.624;9.786;2022-11-28T02:11:42;6.70;99.90
5392;DHT22;2719;53.624;9.786;2022-11-28T02:14:22;6.60;99.90
5392;DHT22;2719;53.624;9.786;2022-11-28T02:17:00;6.60;99.90
5392;DHT22;2719;53.624;9.786;2022-11-28T02:19:54;6.80;99.90
5392;DHT22;2719;53.624;9.786;2022-11-28T02:22:29;6.80;99.90
5392;DHT22;2719;53.624;9.786;2022-11-28T02:25:32;6.80;99.90
5392;DHT22;2719;53.624;9.786;2022-11-28T02:28:28;6.70;99.90
5392;DHT22;2719;53.624;9.786;2022-11-28T02:31:04;6.70;99.90
5392;DHT22;2719;53.624;9.786;2022-11-28T02:33:41;6.80;99.90
5392;DHT22;2719;53.624;9.786;2022-11-28T02:36:14;6.80;99.90
5392;DHT22;2719;53.624;9.786;2022-11-28T02:38:52;6.60;99.90
5392;DHT22;2719;53.624;9.786;2022-11-28T02:41:27;6.70;99.90
5392;DHT22;2719;53.624;9.786;2022-11-28T02:44:01;6.80;99.90
5392;DHT22;2719;53.624;9.786;2022-11-28T02:46:36;6.80;99.90
5392;DHT22;2719;53.624;9.786;2022-11-28T02:49:12;6.70;99.90
5392;DHT22;2719;53.624;9.786;2022-11-28T02:51:42;6.90;99.90
5392;DHT22;2719;53.624;9.786;2022-11-28T02:54:13;6.70;99.90
5392;DHT22;2719;53.624;9.786;2022-11-28T02:56:46;6.70;99.90
5392;DHT22;2719;53.624;9.786;2022-11-28T02:59:31;6.80;99.90
5392;DHT22;2719;53.624;9.786;2022-11-28T03:01:58;6.70;99.90
5392;DHT22;2719;53.624;9.786;2022-11-28T03:04:31;6.80;99.90
5392;DHT22;2719;53.624;9.786;2022-11-28T03:07:10;6.80;99.90
5392;DHT22;2719;53.624;9.786;2022-11-28T03:09:55;6.80;99.90
5392;DHT22;2719;53.624;9.786;2022-11-28T03:12:33;6.80;99.90
5392;DHT22;2719;53.624;9.786;2022-11-28T03:15:05;6.80;99.90
5392;DHT22;2719;53.624;9.786;2022-11-28T03:17:38;6.90;99.90
5392;DHT22;2719;53.624;9.786;2022-11-28T03:20:18;6.90;99.90
5392;DHT22;2719;53.624;9.786;2022-11-28T03:22:57;6.80;99.90
5392;DHT22;2719;53.624;9.786;2022-11-28T03:25:29;6.90;99.90
5392;DHT22;2719;53.624;9.786;2022-11-28T03:28:02;6.90;99.90
5392;DHT22;2719;53.624;9.786;2022-11-28T03:30:38;6.90;99.90
5392;DHT22;2719;53.624;9.786;2022-11-28T03:33:06;6.80;99.90
5392;DHT22;2719;53.624;9.786;2022-11-28T03:35:37;6.90;99.90
5392;DHT22;2719;53.624;9.786;2022-11-28T03:38:09;6.90;99.90
5392;DHT22;2719;53.624;9.786;2022-11-28T03:40:41;6.90;99.90
5392;DHT22;2719;53.624;9.786;2022-11-28T03:43:11;6.90;99.90
5392;DHT22;2719;53.624;9.786;2022-11-28T03:45:42;6.70;99.90
5392;DHT22;2719;53.624;9.786;2022-11-28T03:48:12;6.60;99.90
5392;DHT22;2719;53.624;9.786;2022-11-28T03:50:44;6.60;99.90
5392;DHT22;2719;53.624;9.786;2022-11-28T03:53:15;6.60;99.90
5392;DHT22;2719;53.624;9.786;2022-11-28T03:55:48;6.70;99.90
5392;DHT22;2719;53.624;9.786;2022-11-28T03:58:22;6.80;99.90
5392;DHT22;2719;53.624;9.786;2022-11-28T04:00:57;6.80;99.90
5392;DHT22;2719;53.624;9.786;2022-11-28T04:03:32;6.80;99.90
5392;DHT22;2719;53.624;9.786;2022-11-28T04:06:11;6.70;99.90
5392;DHT22;2719;53.624;9.786;2022-11-28T04:08:43;6.80;99.90
5392;DHT22;2719;53.624;9.786;2022-11-28T04:11:14;6.80;99.90
5392;DHT22;2719;53.624;9.786;2022-11-28T04:13:47;6.80;99.90
5392;DHT22;2719;53.624;9.786;2022-11-28T04:16:20;6.80;99.90
5392;DHT22;2719;53.624;9.786;2022-11-28T04:18:53;6.80;99.90
5392;DHT22;2719;53.624;9.786;2022-11-28T04:21:26;6.70;99.90
5392;DHT22;2719;53.624;9.786;2022-11-28T04:23:58;6.70;99.90
5392;DHT22;2719;53.624;9.786;2022-11-28T04:26:29;6.80;99.90
5392;DHT22;2719;53.624;9.786;2022-11-28T04:28:58;6.80;99.90
5392;DHT22;2719;53.624;9.786;2022-11-28T04:31:26;6.80;99.90
5392;DHT22;2719;53.624;9.786;2022-11-28T04:33:57;6.80;99.90
5392;DHT22;2719;53.624;9.786;2022-11-28T04:36:26;6.70;99.90
5392;DHT22;2719;53.624;9.786;2022-11-28T04:38:56;6.50;99.90
5392;DHT22;2719;53.624;9.786;2022-11-28T04:41:26;6.60;99.90
5392;DHT22;2719;53.624;9.786;2022-11-28T04:43:59;6.70;99.90
5392;DHT22;2719;53.624;9.786;2022-11-28T04:46:30;6.60;99.90
5392;DHT22;2719;53.624;9.786;2022-11-28T04:48:58;6.80;99.90
5392;DHT22;2719;53.624;9.786;2022-11-28T04:51:30;6.80;99.90
5392;DHT22;2719;53.624;9.786;2022-11-28T04:54:01;6.90;99.90
5392;DHT22;2719;53.624;9.786;2022-11-28T04:56:35;6.90;99.90
5392;DHT22;2719;53.624;9.786;2022-11-28T04:59:05;6.90;99.90
5392;DHT22;2719;53.624;9.786;2022-11-28T05:01:33;6.90;99.90
5392;DHT22;2719;53.624;9.786;2022-11-28T05:04:01;7.00;99.90
5392;DHT22;2719;53.624;9.786;2022-11-28T05:06:31;7.00;99.90
5392;DHT22;2719;53.624;9.786;2022-11-28T05:08:59;7.10;99.90
5392;DHT22;2719;53.624;9.786;2022-11-28T05:11:26;7.00;99.90
5392;DHT22;2719;53.624;9.786;2022-11-28T05:13:53;7.00;99.90
5392;DHT22;2719;53.624;9.786;2022-11-28T05:16:21;7.00;99.90
5392;DHT22;2719;53.624;9.786;2022-11-28T05:18:48;7.00;99.90
5392;DHT22;2719;53.624;9.786;2022-11-28T05:21:14;7.10;99.90
5392;DHT22;2719;53.624;9.786;2022-11-28T05:23:44;7.10;99.90
5392;DHT22;2719;53.624;9.786;2022-11-28T05:26:13;7.10;99.90
5392;DHT22;2719;53.624;9.786;2022-11-28T05:28:42;7.10;99.90
5392;DHT22;2719;53.624;9.786;2022-11-28T05:31:10;7.10;99.90
5392;DHT22;2719;53.624;9.786;2022-11-28T05:33:37;7.10;99.90
5392;DHT22;2719;53.624;9.786;2022-11-28T05:36:05;7.10;99.90
5392;DHT22;2719;53.624;9.786;2022-11-28T05:38:33;7.10;99.90
5392;DHT22;2719;53.624;9.786;2022-11-28T05:41:01;7.10;99.90
5392;DHT22;2719;53.624;9.786;2022-11-28T05:43:29;6.90;99.90
5392;DHT22;2719;53.624;9.786;2022-11-28T05:45:57;7.00;99.90
5392;DHT22;2719;53.624;9.786;2022-11-28T05:48:24;6.90;99.90
5392;DHT22;2719;53.624;9.786;2022-11-28T05:50:51;7.00;99.90
5392;DHT22;2719;53.624;9.786;2022-11-28T05:53:18;7.00;99.90
5392;DHT22;2719;53.624;9.786;2022-11-28T05:55:46;6.90;99.90
5392;DHT22;2719;53.624;9.786;2022-11-28T05:58:14;6.90;99.90
5392;DHT22;2719;53.624;9.786;2022-11-28T06:00:41;6.90;99.90
5392;DHT22;2719;53.624;9.786;2022-11-28T06:03:07;6.90;99.90
5392;DHT22;2719;53.624;9.786;2022-11-28T06:05:37;6.90;99.90
5392;DHT22;2719;53.624;9.786;2022-11-28T06:08:05;6.90;99.90
5392;DHT22;2719;53.624;9.786;2022-11-28T06:10:31;6.90;99.90
5392;DHT22;2719;53.624;9.786;2022-11-28T06:12:58;6.80;99.90
5392;DHT22;2719;53.624;9.786;2022-11-28T06:15:26;6.90;99.90
5392;DHT22;2719;53.624;9.786;2022-11-28T06:17:53;6.90;99.90
5392;DHT22;2719;53.624;9.786;2022-11-28T06:20:19;6.90;99.90
5392;DHT22;2719;53.624;9.786;2022-11-28T06:22:46;6.90;99.90
5392;DHT22;2719;53.624;9.786;2022-11-28T06:25:13;6.90;99.90
5392;DHT22;2719;53.624;9.786;2022-11-28T06:27:40;6.80;99.90
5392;DHT22;2719;53.624;9.786;2022-11-28T06:30:08;6.90;99.90
5392;DHT22;2719;53.624;9.786;2022-11-28T06:32:36;6.80;99.90
5392;DHT22;2719;53.624;9.786;2022-11-28T06:35:03;6.90;99.90
5392;DHT22;2719;53.624;9.786;2022-11-28T06:37:29;6.90;99.90
5392;DHT22;2719;53.624;9.786;2022-11-28T06:39:56;6.80;99.90
5392;DHT22;2719;53.624;9.786;2022-11-28T06:42:23;6.80;99.90
5392;DHT22;2719;53.624;9.786;2022-11-28T06:44:50;6.70;99.90
5392;DHT22;2719;53.624;9.786;2022-11-28T06:47:17;6.80;99.90
5392;DHT22;2719;53.624;9.786;2022-11-28T06:49:47;6.70;99.90
5392;DHT22;2719;53.624;9.786;2022-11-28T06:52:13;6.70;99.90
5392;DHT22;2719;53.624;9.786;2022-11-28T06:54:41;6.70;99.90
5392;DHT22;2719;53.624;9.786;2022-11-28T06:57:08;6.70;99.90
5392;DHT22;2719;53.624;9.786;2022-11-28T06:59:34;6.80;99.90
5392;DHT22;2719;53.624;9.786;2022-11-28T07:02:01;6.80;99.90
5392;DHT22;2719;53.624;9.786;2022-11-28T07:04:28;6.90;99.90
5392;DHT22;2719;53.624;9.786;2022-11-28T07:06:57;6.90;99.90
5392;DHT22;2719;53.624;9.786;2022-11-28T07:09:23;6.90;99.90
5392;DHT22;2719;53.624;9.786;2022-11-28T07:11:50;6.70;99.90
5392;DHT22;2719;53.624;9.786;2022-11-28T07:14:17;6.80;99.90
5392;DHT22;2719;53.624;9.786;2022-11-28T07:16:44;6.80;99.90
5392;DHT22;2719;53.624;9.786;2022-11-28T07:19:12;6.80;99.90
5392;DHT22;2719;53.624;9.786;2022-11-28T07:21:39;6.80;99.90
5392;DHT22;2719;53.624;9.786;2022-11-28T07:24:07;6.70;99.90
5392;DHT22;2719;53.624;9.786;2022-11-28T07:26:34;6.70;99.90
5392;DHT22;2719;53.624;9.786;2022-11-28T07:29:02;6.70;99.90
5392;DHT22;2719;53.624;9.786;2022-11-28T07:31:31;6.70;99.90
5392;DHT22;2719;53.624;9.786;2022-11-28T07:34:00;6.80;99.90
5392;DHT22;2719;53.624;9.786;2022-11-28T07:36:28;6.50;99.90
5392;DHT22;2719;53.624;9.786;2022-11-28T07:38:57;6.50;99.90
5392;DHT22;2719;53.624;9.786;2022-11-28T07:41:26;6.50;99.90
5392;DHT22;2719;53.624;9.786;2022-11-28T07:43:54;6.50;99.90
5392;DHT22;2719;53.624;9.786;2022-11-28T07:46:22;6.60;99.90
5392;DHT22;2719;53.624;9.786;2022-11-28T07:48:48;6.60;99.90
5392;DHT22;2719;53.624;9.786;2022-11-28T07:51:18;6.60;99.90
5392;DHT22;2719;53.624;9.786;2022-11-28T07:53:46;6.70;99.90
5392;DHT22;2719;53.624;9.786;2022-11-28T07:56:17;6.60;99.90
5392;DHT22;2719;53.624;9.786;2022-11-28T07:58:46;6.60;99.90
5392;DHT22;2719;53.624;9.786;2022-11-28T08:01:15;6.60;99.90
5392;DHT22;2719;53.624;9.786;2022-11-28T08:03:42;6.60;99.90
5392;DHT22;2719;53.624;9.786;2022-11-28T08:06:10;6.60;99.90
5392;DHT22;2719;53.624;9.786;2022-11-28T08:08:37;6.50;99.90
5392;DHT22;2719;53.624;9.786;2022-11-28T08:11:06;6.50;99.90
5392;DHT22;2719;53.624;9.786;2022-11-28T08:13:33;6.40;99.90
5392;DHT22;2719;53.624;9.786;2022-11-28T08:16:04;6.50;99.90
5392;DHT22;2719;53.624;9.786;2022-11-28T08:18:32;6.50;99.90
5392;DHT22;2719;53.624;9.786;2022-11-28T08:21:03;6.50;99.90
5392;DHT22;2719;53.624;9.786;2022-11-28T08:23:32;6.40;99.90
5392;DHT22;2719;53.624;9.786;2022-11-28T08:25:59;6.50;99.90
5392;DHT22;2719;53.624;9.786;2022-11-28T08:28:26;6.60;99.90
5392;DHT22;2719;53.624;9.786;2022-11-28T08:30:53;6.60;99.90
5392;DHT22;2719;53.624;9.786;2022-11-28T08:33:21;6.60;99.90
5392;DHT22;2719;53.624;9.786;2022-11-28T08:35:48;6.50;99.90
5392;DHT22;2719;53.624;9.786;2022-11-28T08:38:15;6.50;99.90
5392;DHT22;2719;53.624;9.786;2022-11-28T08:40:41;6.50;99.90
5392;DHT22;2719;53.624;9.786;2022-11-28T08:43:08;6.50;99.90
5392;DHT22;2719;53.624;9.786;2022-11-28T08:45:36;6.50;99.90
5392;DHT22;2719;53.624;9.786;2022-11-28T08:48:03;6.40;99.90
5392;DHT22;2719;53.624;9.786;2022-11-28T08:50:32;6.50;99.90
5392;DHT22;2719;53.624;9.786;2022-11-28T08:52:59;6.50;99.90
5392;DHT22;2719;53.624;9.786;2022-11-28T08:55:25;6.40;99.90
5392;DHT22;2719;53.624;9.786;2022-11-28T08:57:52;6.40;99.90
5392;DHT22;2719;53.624;9.786;2022-11-28T09:00:19;6.40;99.90
5392;DHT22;2719;53.624;9.786;2022-11-28T09:02:46;6.50;99.90
5392;DHT22;2719;53.624;9.786;2022-11-28T09:05:13;6.30;99.90
5392;DHT22;2719;53.624;9.786;2022-11-28T09:07:41;6.40;99.90
5392;DHT22;2719;53.624;9.786;2022-11-28T09:10:08;6.50;99.90
5392;DHT22;2719;53.624;9.786;2022-11-28T09:12:35;6.60;99.90
5392;DHT22;2719;53.624;9.786;2022-11-28T09:15:02;6.70;99.90
5392;DHT22;2719;53.624;9.786;2022-11-28T09:17:28;6.70;99.90
5392;DHT22;2719;53.624;9.786;2022-11-28T09:19:55;6.50;99.90
5392;DHT22;2719;53.624;9.786;2022-11-28T09:22:22;6.60;99.90
5392;DHT22;2719;53.624;9.786;2022-11-28T09:24:50;6.60;99.90
5392;DHT22;2719;53.624;9.786;2022-11-28T09:27:16;6.70;99.90
5392;DHT22;2719;53.624;9.786;2022-11-28T09:29:43;6.60;99.90
5392;DHT22;2719;53.624;9.786;2022-11-28T09:32:10;6.70;99.90
5392;DHT22;2719;53.624;9.786;2022-11-28T09:34:36;6.80;99.90
5392;DHT22;2719;53.624;9.786;2022-11-28T09:37:03;6.70;99.90
5392;DHT22;2719;53.624;9.786;2022-11-28T09:39:30;6.70;99.90
5392;DHT22;2719;53.624;9.786;2022-11-28T09:42:04;6.70;99.90
5392;DHT22;2719;53.624;9.786;2022-11-28T09:44:40;6.60;99.90
5392;DHT22;2719;53.624;9.786;2022-11-28T09:47:13;6.70;99.90
5392;DHT22;2719;53.624;9.786;2022-11-28T09:49:45;6.80;99.90
5392;DHT22;2719;53.624;9.786;2022-11-28T09:52:31;6.80;99.90
5392;DHT22;2719;53.624;9.786;2022-11-28T09:55:10;6.80;99.90
5392;DHT22;2719;53.624;9.786;2022-11-28T09:57:44;6.70;99.90
5392;DHT22;2719;53.624;9.786;2022-11-28T10:00:13;6.80;99.90
5392;DHT22;2719;53.624;9.786;2022-11-28T10:02:57;6.90;99.90
5392;DHT22;2719;53.624;9.786;2022-11-28T10:05:32;6.90;99.90
5392;DHT22;2719;53.624;9.786;2022-11-28T10:08:12;6.80;99.90
5392;DHT22;2719;53.624;9.786;2022-11-28T10:10:45;6.90;99.90
5392;DHT22;2719;53.624;9.786;2022-11-28T10:13:20;6.90;99.90
5392;DHT22;2719;53.624;9.786;2022-11-28T10:15:56;7.00;99.90
5392;DHT22;2719;53.624;9.786;2022-11-28T10:18:34;6.90;99.90
5392;DHT22;2719;53.624;9.786;2022-11-28T10:21:10;6.90;99.90
5392;DHT22;2719;53.624;9.786;2022-11-28T10:23:42;6.90;99.90
5392;DHT22;2719;53.624;9.786;2022-11-28T10:26:15;6.90;99.90
5392;DHT22;2719;53.624;9.786;2022-11-28T10:28:49;6.80;99.90
5392;DHT22;2719;53.624;9.786;2022-11-28T10:31:20;6.80;99.90
5392;DHT22;2719;53.624;9.786;2022-11-28T10:33:53;6.80;99.90
5392;DHT22;2719;53.624;9.786;2022-11-28T10:36:26;6.70;99.90
5392;DHT22;2719;53.624;9.786;2022-11-28T10:38:54;6.70;99.90
5392;DHT22;2719;53.624;9.786;2022-11-28T10:41:26;6.70;99.90
5392;DHT22;2719;53.624;9.786;2022-11-28T10:43:59;6.90;99.90
5392;DHT22;2719;53.624;9.786;2022-11-28T10:46:47;6.80;99.90
5392;DHT22;2719;53.624;9.786;2022-11-28T10:49:25;6.80;99.90
5392;DHT22;2719;53.624;9.786;2022-11-28T10:51:59;6.90;99.90
5392;DHT22;2719;53.624;9.786;2022-11-28T10:54:44;6.80;99.90
5392;DHT22;2719;53.624;9.786;2022-11-28T10:57:17;6.70;99.90
5392;DHT22;2719;53.624;9.786;2022-11-28T10:59:58;6.70;99.90
5392;DHT22;2719;53.624;9.786;2022-11-28T11:02:34;6.80;99.90
5392;DHT22;2719;53.624;9.786;2022-11-28T11:05:03;6.70;99.90
5392;DHT22;2719;53.624;9.786;2022-11-28T11:07:32;6.80;99.90
5392;DHT22;2719;53.624;9.786;2022-11-28T11:10:06;6.70;99.90
5392;DHT22;2719;53.624;9.786;2022-11-28T11:12:37;6.60;99.90
5392;DHT22;2719;53.624;9.786;2022-11-28T11:15:21;6.50;99.90
5392;DHT22;2719;53.624;9.786;2022-11-28T11:17:49;6.50;99.90
5392;DHT22;2719;53.624;9.786;2022-11-28T11:20:30;6.60;99.90
5392;DHT22;2719;53.624;9.786;2022-11-28T11:22:59;6.60;99.90
5392;DHT22;2719;53.624;9.786;2022-11-28T11:25:28;6.60;99.90
5392;DHT22;2719;53.624;9.786;2022-11-28T11:27:57;6.50;99.90
5392;DHT22;2719;53.624;9.786;2022-11-28T11:30:29;6.50;99.90
5392;DHT22;2719;53.624;9.786;2022-11-28T11:32:57;6.50;99.90
5392;DHT22;2719;53.624;9.786;2022-11-28T11:35:26;6.50;99.90
5392;DHT22;2719;53.624;9.786;2022-11-28T11:37:55;6.40;99.90
5392;DHT22;2719;53.624;9.786;2022-11-28T11:40:39;6.40;99.90
5392;DHT22;2719;53.624;9.786;2022-11-28T11:43:22;6.50;99.90
5392;DHT22;2719;53.624;9.786;2022-11-28T11:46:03;6.60;99.90
5392;DHT22;2719;53.624;9.786;2022-11-28T11:48:34;6.40;99.90
5392;DHT22;2719;53.624;9.786;2022-11-28T11:51:01;6.40;99.90
5392;DHT22;2719;53.624;9.786;2022-11-28T11:53:28;6.40;99.90
5392;DHT22;2719;53.624;9.786;2022-11-28T11:55:55;6.40;99.90
5392;DHT22;2719;53.624;9.786;2022-11-28T11:58:27;6.30;99.90
5392;DHT22;2719;53.624;9.786;2022-11-28T12:00:58;6.40;99.90
5392;DHT22;2719;53.624;9.786;2022-11-28T12:03:32;6.40;99.90
5392;DHT22;2719;53.624;9.786;2022-11-28T12:06:04;6.50;99.90
5392;DHT22;2719;53.624;9.786;2022-11-28T12:08:35;6.60;99.90
5392;DHT22;2719;53.624;9.786;2022-11-28T12:11:12;6.60;99.90
5392;DHT22;2719;53.624;9.786;2022-11-28T12:13:39;6.40;99.90
5392;DHT22;2719;53.624;9.786;2022-11-28T12:16:20;6.30;99.90
5392;DHT22;2719;53.624;9.786;2022-11-28T12:18:58;6.40;99.90
5392;DHT22;2719;53.624;9.786;2022-11-28T12:21:30;6.50;99.90
5392;DHT22;2719;53.624;9.786;2022-11-28T12:24:07;6.40;99.90
5392;DHT22;2719;53.624;9.786;2022-11-28T12:26:42;6.50;99.90
5392;DHT22;2719;53.624;9.786;2022-11-28T12:29:29;6.60;99.90
5392;DHT22;2719;53.624;9.786;2022-11-28T12:32:13;6.60;99.90
5392;DHT22;2719;53.624;9.786;2022-11-28T12:34:52;6.50;99.90
5392;DHT22;2719;53.624;9.786;2022-11-28T12:37:28;6.40;99.90
5392;DHT22;2719;53.624;9.786;2022-11-28T12:40:05;6.50;99.90
5392;DHT22;2719;53.624;9.786;2022-11-28T12:42:55;6.50;99.90
5392;DHT22;2719;53.624;9.786;2022-11-28T12:45:34;6.50;99.90
5392;DHT22;2719;53.624;9.786;2022-11-28T12:48:11;6.30;99.90
5392;DHT22;2719;53.624;9.786;2022-11-28T12:50:44;6.30;99.90
5392;DHT22;2719;53.624;9.786;2022-11-28T12:53:28;6.40;99.90
5392;DHT22;2719;53.624;9.786;2022-11-28T12:56:05;6.40;99.90
5392;DHT22;2719;53.624;9.786;2022-11-28T12:58:39;6.50;99.90
5392;DHT22;2719;53.624;9.786;2022-11-28T13:01:23;6.60;99.90
5392;DHT22;2719;53.624;9.786;2022-11-28T13:04:02;6.50;99.90
5392;DHT22;2719;53.624;9.786;2022-11-28T13:06:36;6.50;99.90
5392;DHT22;2719;53.624;9.786;2022-11-28T13:09:18;6.60;99.90
5392;DHT22;2719;53.624;9.786;2022-11-28T13:11:53;6.60;99.90
5392;DHT22;2719;53.624;9.786;2022-11-28T13:14:27;6.40;99.90
5392;DHT22;2719;53.624;9.786;2022-11-28T13:17:01;6.40;99.90
5392;DHT22;2719;53.624;9.786;2022-11-28T13:19:41;6.30;99.90
5392;DHT22;2719;53.624;9.786;2022-11-28T13:22:14;6.40;99.90
5392;DHT22;2719;53.624;9.786;2022-11-28T13:24:51;6.30;99.90
5392;DHT22;2719;53.624;9.786;2022-11-28T13:27:26;6.20;99.90
5392;DHT22;2719;53.624;9.786;2022-11-28T13:30:05;6.20;99.90
5392;DHT22;2719;53.624;9.786;2022-11-28T13:32:43;6.30;99.90
5392;DHT22;2719;53.624;9.786;2022-11-28T13:35:13;6.30;99.90
5392;DHT22;2719;53.624;9.786;2022-11-28T13:37:46;6.40;99.90
5392;DHT22;2719;53.624;9.786;2022-11-28T13:40:30;6.40;99.90
5392;DHT22;2719;53.624;9.786;2022-11-28T13:43:21;6.50;99.90
5392;DHT22;2719;53.624;9.786;2022-11-28T13:46:08;6.30;99.90
5392;DHT22;2719;53.624;9.786;2022-11-28T13:48:57;6.30;99.90
5392;DHT22;2719;53.624;9.786;2022-11-28T13:51:27;6.20;99.90
5392;DHT22;2719;53.624;9.786;2022-11-28T13:57:26;6.00;99.90
5392;DHT22;2719;53.624;9.786;2022-11-28T14:00:04;6.10;99.90
5392;DHT22;2719;53.624;9.786;2022-11-28T14:02:43;6.10;99.90
5392;DHT22;2719;53.624;9.786;2022-11-28T14:05:29;6.20;99.90
5392;DHT22;2719;53.624;9.786;2022-11-28T14:07:59;6.20;99.90
5392;DHT22;2719;53.624;9.786;2022-11-28T14:10:38;6.10;99.90
5392;DHT22;2719;53.624;9.786;2022-11-28T14:13:20;6.20;99.90
5392;DHT22;2719;53.624;9.786;2022-11-28T14:15:59;6.20;99.90
5392;DHT22;2719;53.624;9.786;2022-11-28T14:18:41;6.20;99.90
5392;DHT22;2719;53.624;9.786;2022-11-28T14:21:19;6.20;99.90
5392;DHT22;2719;53.624;9.786;2022-11-28T14:23:53;6.30;99.90
5392;DHT22;2719;53.624;9.786;2022-11-28T14:26:31;6.30;99.90
5392;DHT22;2719;53.624;9.786;2022-11-28T14:29:00;6.30;99.90
5392;DHT22;2719;53.624;9.786;2022-11-28T14:31:31;6.30;99.90
5392;DHT22;2719;53.624;9.786;2022-11-28T14:34:00;6.30;99.90
5392;DHT22;2719;53.624;9.786;2022-11-28T14:36:29;6.40;99.90
5392;DHT22;2719;53.624;9.786;2022-11-28T14:39:33;6.40;99.90
5392;DHT22;2719;53.624;9.786;2022-11-28T14:42:32;6.20;99.90
5392;DHT22;2719;53.624;9.786;2022-11-28T14:48:17;6.40;99.90
5392;DHT22;2719;53.624;9.786;2022-11-28T14:50:49;6.40;99.90
5392;DHT22;2719;53.624;9.786;2022-11-28T14:53:41;6.40;99.90
5392;DHT22;2719;53.624;9.786;2022-11-28T14:56:21;6.30;99.90
5392;DHT22;2719;53.624;9.786;2022-11-28T14:58:51;6.20;99.90
5392;DHT22;2719;53.624;9.786;2022-11-28T15:04:20;6.20;99.90
5392;DHT22;2719;53.624;9.786;2022-11-28T15:06:52;6.20;99.90
5392;DHT22;2719;53.624;9.786;2022-11-28T15:09:25;6.20;99.90
5392;DHT22;2719;53.624;9.786;2022-11-28T15:12:07;6.20;99.90
5392;DHT22;2719;53.624;9.786;2022-11-28T15:14:36;6.00;99.90
5392;DHT22;2719;53.624;9.786;2022-11-28T15:17:04;6.00;99.90
5392;DHT22;2719;53.624;9.786;2022-11-28T15:19:36;6.10;99.90
5392;DHT22;2719;53.624;9.786;2022-11-28T15:22:04;6.00;99.90
5392;DHT22;2719;53.624;9.786;2022-11-28T15:24:33;5.90;99.90
5392;DHT22;2719;53.624;9.786;2022-11-28T15:29:55;6.10;99.90
5392;DHT22;2719;53.624;9.786;2022-11-28T15:32:23;6.20;99.90
5392;DHT22;2719;53.624;9.786;2022-11-28T15:34:52;6.10;99.90
5392;DHT22;2719;53.624;9.786;2022-11-28T15:37:23;6.10;99.90
5392;DHT22;2719;53.624;9.786;2022-11-28T15:39:51;6.10;99.90
5392;DHT22;2719;53.624;9.786;2022-11-28T15:42:21;6.00;99.90
5392;DHT22;2719;53.624;9.786;2022-11-28T15:44:54;6.10;99.90
5392;DHT22;2719;53.624;9.786;2022-11-28T15:47:21;6.10;99.90
5392;DHT22;2719;53.624;9.786;2022-11-28T15:49:58;6.00;99.90
5392;DHT22;2719;53.624;9.786;2022-11-28T15:52:25;6.00;99.90
5392;DHT22;2719;53.624;9.786;2022-11-28T15:54:52;6.20;99.90
5392;DHT22;2719;53.624;9.786;2022-11-28T15:57:20;6.20;99.90
5392;DHT22;2719;53.624;9.786;2022-11-28T15:59:48;6.10;99.90
5392;DHT22;2719;53.624;9.786;2022-11-28T16:02:19;6.00;99.90
5392;DHT22;2719;53.624;9.786;2022-11-28T16:04:48;5.90;99.90
5392;DHT22;2719;53.624;9.786;2022-11-28T16:07:16;6.10;99.90
5392;DHT22;2719;53.624;9.786;2022-11-28T16:09:56;6.10;99.90
5392;DHT22;2719;53.624;9.786;2022-11-28T16:12:23;6.10;99.90
5392;DHT22;2719;53.624;9.786;2022-11-28T16:14:51;6.00;99.90
5392;DHT22;2719;53.624;9.786;2022-11-28T16:17:27;6.10;99.90
5392;DHT22;2719;53.624;9.786;2022-11-28T16:19:56;6.20;99.90
5392;DHT22;2719;53.624;9.786;2022-11-28T16:22:29;6.30;99.90
5392;DHT22;2719;53.624;9.786;2022-11-28T16:25:11;6.30;99.90
5392;DHT22;2719;53.624;9.786;2022-11-28T16:27:39;6.20;99.90
5392;DHT22;2719;53.624;9.786;2022-11-28T16:33:35;6.10;99.90
5392;DHT22;2719;53.624;9.786;2022-11-28T16:36:10;6.10;99.90
5392;DHT22;2719;53.624;9.786;2022-11-28T16:38:42;6.20;99.90
5392;DHT22;2719;53.624;9.786;2022-11-28T16:41:14;6.10;99.90
5392;DHT22;2719;53.624;9.786;2022-11-28T16:43:46;6.10;99.90
5392;DHT22;2719;53.624;9.786;2022-11-28T16:46:18;6.20;99.90
5392;DHT22;2719;53.624;9.786;2022-11-28T16:48:48;6.20;99.90
5392;DHT22;2719;53.624;9.786;2022-11-28T16:51:37;6.00;99.90
5392;DHT22;2719;53.624;9.786;2022-11-28T16:54:28;6.10;99.90
5392;DHT22;2719;53.624;9.786;2022-11-28T16:56:57;6.10;99.90
5392;DHT22;2719;53.624;9.786;2022-11-28T16:59:32;6.20;99.90
5392;DHT22;2719;53.624;9.786;2022-11-28T17:01:59;6.30;99.90